createdAt,value
2019-02-14T00:00:03.541Z,3.70
2019-02-14T00:01:11.250Z,3.70
2019-02-14T00:02:19.192Z,3.70
2019-02-14T00:03:26.645Z,3.70
2019-02-14T00:04:33.343Z,3.70
2019-02-14T00:05:40.843Z,3.70
2019-02-14T00:06:47.892Z,3.60
2019-02-14T00:07:54.600Z,3.60
2019-02-14T00:09:01.653Z,3.60
2019-02-14T00:10:08.623Z,3.60
2019-02-14T00:11:15.308Z,3.60
2019-02-14T00:12:22.534Z,3.60
2019-02-14T00:13:29.596Z,3.60
2019-02-14T00:14:36.282Z,3.60
2019-02-14T00:15:43.271Z,3.60
2019-02-14T00:16:50.348Z,3.70
2019-02-14T00:17:57.077Z,3.60
2019-02-14T00:19:04.141Z,3.60
2019-02-14T00:20:11.252Z,3.60
2019-02-14T00:21:18.114Z,3.60
2019-02-14T00:22:24.800Z,3.60
2019-02-14T00:23:31.507Z,3.60
2019-02-14T00:24:38.521Z,3.60
2019-02-14T00:25:45.204Z,3.60
2019-02-14T00:26:52.182Z,3.60
2019-02-14T00:27:58.957Z,3.60
2019-02-14T00:29:05.779Z,3.50
2019-02-14T00:30:12.976Z,3.50
2019-02-14T00:31:20.267Z,3.50
2019-02-14T00:32:26.911Z,3.50
2019-02-14T00:33:34.289Z,3.50
2019-02-14T00:34:40.955Z,3.40
2019-02-14T00:35:47.633Z,3.40
2019-02-14T00:36:54.314Z,3.40
2019-02-14T00:38:02.810Z,3.40
2019-02-14T00:39:09.582Z,3.40
2019-02-14T00:40:16.248Z,3.40
2019-02-14T00:41:22.908Z,3.30
2019-02-14T00:42:30.278Z,3.30
2019-02-14T00:43:36.980Z,3.30
2019-02-14T00:44:43.667Z,3.30
2019-02-14T00:45:50.721Z,3.30
2019-02-14T00:46:57.390Z,3.30
2019-02-14T00:48:04.182Z,3.30
2019-02-14T00:49:11.218Z,3.30
2019-02-14T00:50:18.201Z,3.30
2019-02-14T00:51:24.879Z,3.30
2019-02-14T00:52:31.967Z,3.30
2019-02-14T00:53:38.650Z,3.30
2019-02-14T00:54:45.614Z,3.20
2019-02-14T00:55:52.829Z,3.20
2019-02-14T00:56:59.562Z,3.20
2019-02-14T00:58:06.285Z,3.30
2019-02-14T00:59:12.934Z,3.20
2019-02-14T01:00:19.611Z,3.20
2019-02-14T01:01:26.621Z,3.20
2019-02-14T01:02:33.446Z,3.20
2019-02-14T01:03:40.771Z,3.30
2019-02-14T01:04:47.490Z,3.30
2019-02-14T01:05:54.161Z,3.30
2019-02-14T01:07:00.854Z,3.40
2019-02-14T01:08:07.566Z,3.40
2019-02-14T01:09:14.256Z,3.40
2019-02-14T01:10:21.287Z,3.40
2019-02-14T01:11:27.984Z,3.40
2019-02-14T01:12:34.682Z,3.50
2019-02-14T01:13:41.371Z,3.50
2019-02-14T01:14:48.684Z,3.50
2019-02-14T01:15:55.911Z,3.50
2019-02-14T01:17:02.944Z,3.50
2019-02-14T01:18:10.060Z,3.50
2019-02-14T01:19:16.714Z,3.50
2019-02-14T01:20:23.913Z,3.40
2019-02-14T01:21:30.691Z,3.50
2019-02-14T01:22:37.382Z,3.40
2019-02-14T01:23:44.352Z,3.40
2019-02-14T01:24:51.050Z,3.40
2019-02-14T01:25:58.200Z,3.40
2019-02-14T01:27:04.898Z,3.40
2019-02-14T01:28:11.593Z,3.40
2019-02-14T01:29:19.031Z,3.40
2019-02-14T01:30:26.038Z,3.40
2019-02-14T01:31:33.132Z,3.50
2019-02-14T01:32:40.187Z,3.50
2019-02-14T01:33:47.296Z,3.50
2019-02-14T01:34:54.030Z,3.50
2019-02-14T01:36:01.019Z,3.50
2019-02-14T01:37:08.093Z,3.50
2019-02-14T01:38:15.459Z,3.60
2019-02-14T01:39:22.558Z,3.50
2019-02-14T01:40:29.337Z,3.50
2019-02-14T01:41:36.013Z,3.60
2019-02-14T01:42:42.832Z,3.60
2019-02-14T01:43:49.839Z,3.60
2019-02-14T01:44:56.691Z,3.60
2019-02-14T01:46:04.144Z,3.60
2019-02-14T01:47:11.078Z,3.50
2019-02-14T01:48:17.820Z,3.60
2019-02-14T01:49:24.536Z,3.60
2019-02-14T01:50:31.300Z,3.60
2019-02-14T01:51:38.391Z,3.60
2019-02-14T01:52:45.342Z,3.50
2019-02-14T01:53:52.057Z,3.60
2019-02-14T01:54:58.732Z,3.50
2019-02-14T01:56:05.402Z,3.60
2019-02-14T01:57:12.106Z,3.60
2019-02-14T01:58:19.148Z,3.60
2019-02-14T01:59:25.837Z,3.60
2019-02-14T02:00:32.594Z,3.60
2019-02-14T02:01:39.351Z,3.50
2019-02-14T02:02:46.240Z,3.50
2019-02-14T02:03:52.895Z,3.50
2019-02-14T02:05:00.374Z,3.50
2019-02-14T02:06:07.102Z,3.50
2019-02-14T02:07:13.796Z,3.50
2019-02-14T02:08:20.518Z,3.50
2019-02-14T02:09:27.193Z,3.50
2019-02-14T02:10:33.893Z,3.60
2019-02-14T02:11:40.824Z,3.60
2019-02-14T02:12:47.674Z,3.50
2019-02-14T02:13:54.703Z,3.60
2019-02-14T02:15:01.389Z,3.60
2019-02-14T02:16:08.132Z,3.60
2019-02-14T02:17:14.844Z,3.60
2019-02-14T02:18:22.053Z,3.60
2019-02-14T02:19:28.754Z,3.60
2019-02-14T02:20:35.422Z,3.60
2019-02-14T02:21:42.084Z,3.60
2019-02-14T02:22:48.821Z,3.50
2019-02-14T02:23:55.944Z,3.50
2019-02-14T02:25:04.220Z,3.50
2019-02-14T02:26:11.202Z,3.50
2019-02-14T02:27:18.257Z,3.50
2019-02-14T02:28:24.924Z,3.50
2019-02-14T02:29:32.100Z,3.40
2019-02-14T02:30:38.818Z,3.40
2019-02-14T02:31:45.834Z,3.40
2019-02-14T02:32:52.938Z,3.40
2019-02-14T02:34:00.014Z,3.40
2019-02-14T02:35:07.188Z,3.40
2019-02-14T02:36:14.238Z,3.40
2019-02-14T02:37:20.890Z,3.30
2019-02-14T02:38:27.557Z,3.30
2019-02-14T02:39:34.248Z,3.30
2019-02-14T02:40:40.975Z,3.30
2019-02-14T02:41:47.654Z,3.30
2019-02-14T02:42:54.458Z,3.30
2019-02-14T02:44:01.133Z,3.30
2019-02-14T02:45:10.375Z,3.30
2019-02-14T02:46:17.455Z,3.30
2019-02-14T02:47:24.094Z,3.30
2019-02-14T02:48:31.264Z,3.30
2019-02-14T02:49:37.937Z,3.20
2019-02-14T02:50:44.645Z,3.20
2019-02-14T02:51:51.314Z,3.10
2019-02-14T02:52:57.984Z,3.10
2019-02-14T02:54:05.036Z,3.10
2019-02-14T02:55:12.049Z,3.10
2019-02-14T02:56:19.119Z,3.10
2019-02-14T02:57:25.902Z,3.10
2019-02-14T02:58:33.449Z,3.10
2019-02-14T02:59:40.123Z,3.10
2019-02-14T03:00:46.776Z,3.00
2019-02-14T03:01:53.838Z,3.00
2019-02-14T03:03:00.613Z,3.00
2019-02-14T03:04:07.321Z,2.90
2019-02-14T03:05:15.926Z,2.90
2019-02-14T03:06:22.912Z,2.90
2019-02-14T03:07:29.962Z,2.90
2019-02-14T03:08:37.028Z,2.90
2019-02-14T03:09:44.140Z,2.80
2019-02-14T03:10:50.837Z,2.80
2019-02-14T03:11:58.157Z,2.80
2019-02-14T03:13:05.282Z,2.80
2019-02-14T03:14:12.757Z,2.70
2019-02-14T03:15:19.759Z,2.70
2019-02-14T03:16:26.497Z,2.70
2019-02-14T03:17:33.214Z,2.60
2019-02-14T03:18:40.632Z,2.60
2019-02-14T03:19:47.352Z,2.50
2019-02-14T03:20:54.069Z,2.50
2019-02-14T03:22:00.790Z,2.40
2019-02-14T03:23:08.116Z,2.40
2019-02-14T03:24:15.194Z,2.30
2019-02-14T03:25:22.044Z,2.30
2019-02-14T03:26:28.721Z,2.30
2019-02-14T03:27:36.023Z,2.30
2019-02-14T03:28:43.037Z,2.20
2019-02-14T03:29:50.098Z,2.20
2019-02-14T03:30:56.805Z,2.20
2019-02-14T03:32:03.533Z,2.10
2019-02-14T03:33:10.463Z,2.10
2019-02-14T03:34:17.121Z,2.10
2019-02-14T03:35:23.993Z,2.00
2019-02-14T03:36:31.025Z,2.00
2019-02-14T03:37:38.671Z,2.10
2019-02-14T03:38:45.376Z,2.10
2019-02-14T03:39:52.141Z,2.10
2019-02-14T03:40:59.243Z,2.20
2019-02-14T03:42:06.042Z,2.20
2019-02-14T03:43:12.731Z,2.30
2019-02-14T03:44:19.399Z,2.30
2019-02-14T03:45:26.107Z,2.20
2019-02-14T03:46:32.834Z,2.20
2019-02-14T03:47:39.704Z,2.20
2019-02-14T03:48:46.357Z,2.10
2019-02-14T03:49:53.038Z,2.10
2019-02-14T03:50:59.719Z,2.10
2019-02-14T03:52:06.726Z,2.00
2019-02-14T03:53:13.798Z,2.00
2019-02-14T03:54:20.499Z,2.00
2019-02-14T03:55:27.201Z,2.00
2019-02-14T03:56:36.301Z,1.90
2019-02-14T03:57:42.969Z,1.90
2019-02-14T03:58:49.651Z,1.90
2019-02-14T03:59:56.634Z,1.90
2019-02-14T04:01:03.689Z,1.80
2019-02-14T04:02:10.734Z,1.90
2019-02-14T04:03:17.849Z,1.90
2019-02-14T04:04:24.535Z,1.90
2019-02-14T04:05:31.227Z,1.90
2019-02-14T04:06:38.296Z,1.90
2019-02-14T04:07:45.040Z,1.90
2019-02-14T04:08:51.968Z,1.80
2019-02-14T04:09:58.955Z,1.80
2019-02-14T04:11:05.652Z,1.80
2019-02-14T04:12:13.051Z,1.90
2019-02-14T04:13:20.086Z,1.90
2019-02-14T04:14:26.802Z,1.90
2019-02-14T04:15:33.834Z,1.90
2019-02-14T04:16:40.878Z,2.00
2019-02-14T04:17:47.535Z,2.00
2019-02-14T04:18:54.549Z,2.00
2019-02-14T04:20:01.548Z,2.00
2019-02-14T04:21:08.277Z,2.00
2019-02-14T04:22:15.027Z,2.00
2019-02-14T04:23:21.994Z,1.90
2019-02-14T04:24:28.776Z,1.90
2019-02-14T04:25:35.420Z,1.90
2019-02-14T04:26:42.495Z,1.80
2019-02-14T04:27:49.560Z,1.80
2019-02-14T04:28:56.543Z,1.80
2019-02-14T04:30:03.272Z,1.70
2019-02-14T04:31:10.053Z,1.70
2019-02-14T04:32:16.718Z,1.70
2019-02-14T04:33:23.454Z,1.70
2019-02-14T04:34:30.182Z,1.60
2019-02-14T04:35:36.915Z,1.70
2019-02-14T04:36:43.591Z,1.60
2019-02-14T04:37:51.127Z,1.60
2019-02-14T04:38:57.803Z,1.60
2019-02-14T04:40:04.981Z,1.60
2019-02-14T04:41:11.730Z,1.70
2019-02-14T04:42:19.090Z,1.70
2019-02-14T04:43:25.767Z,1.70
2019-02-14T04:44:32.479Z,1.70
2019-02-14T04:45:39.186Z,1.60
2019-02-14T04:46:46.282Z,1.60
2019-02-14T04:47:52.951Z,1.60
2019-02-14T04:48:59.672Z,1.60
2019-02-14T04:50:06.827Z,1.60
2019-02-14T04:51:13.535Z,1.60
2019-02-14T04:52:20.259Z,1.60
2019-02-14T04:53:26.936Z,1.60
2019-02-14T04:54:33.710Z,1.60
2019-02-14T04:55:40.793Z,1.60
2019-02-14T04:56:47.451Z,1.50
2019-02-14T04:57:54.535Z,1.60
2019-02-14T04:59:01.215Z,1.50
2019-02-14T05:00:09.778Z,1.50
2019-02-14T05:01:16.847Z,1.50
2019-02-14T05:02:23.586Z,1.50
2019-02-14T05:03:30.470Z,1.50
2019-02-14T05:04:37.159Z,1.50
2019-02-14T05:05:43.844Z,1.50
2019-02-14T05:06:50.818Z,1.60
2019-02-14T05:07:57.758Z,1.60
2019-02-14T05:09:07.227Z,1.60
2019-02-14T05:10:14.270Z,1.60
2019-02-14T05:11:20.989Z,1.60
2019-02-14T05:12:28.103Z,1.60
2019-02-14T05:13:36.467Z,1.60
2019-02-14T05:14:43.537Z,1.60
2019-02-14T05:15:50.669Z,1.60
2019-02-14T05:16:58.107Z,1.60
2019-02-14T05:18:04.807Z,1.60
2019-02-14T05:19:11.480Z,1.60
2019-02-14T05:20:18.232Z,1.50
2019-02-14T05:21:24.894Z,1.50
2019-02-14T05:22:32.054Z,1.50
2019-02-14T05:23:39.143Z,1.40
2019-02-14T05:24:45.800Z,1.40
2019-02-14T05:25:52.499Z,1.40
2019-02-14T05:26:59.171Z,1.40
2019-02-14T05:28:05.911Z,1.40
2019-02-14T05:29:12.637Z,1.30
2019-02-14T05:30:19.330Z,1.30
2019-02-14T05:31:26.411Z,1.30
2019-02-14T05:32:33.440Z,1.30
2019-02-14T05:33:40.377Z,1.20
2019-02-14T05:34:47.360Z,1.20
2019-02-14T05:35:55.045Z,1.20
2019-02-14T05:37:02.036Z,1.10
2019-02-14T05:38:08.800Z,1.10
2019-02-14T05:39:15.484Z,1.10
2019-02-14T05:40:22.511Z,1.00
2019-02-14T05:41:29.222Z,1.10
2019-02-14T05:42:36.289Z,1.10
2019-02-14T05:43:43.324Z,1.00
2019-02-14T05:44:50.203Z,1.10
2019-02-14T05:45:57.243Z,1.00
2019-02-14T05:47:03.916Z,1.00
2019-02-14T05:48:10.617Z,1.00
2019-02-14T05:49:17.272Z,1.00
2019-02-14T05:50:23.999Z,1.00
2019-02-14T05:51:30.700Z,1.00
2019-02-14T05:52:37.514Z,1.00
2019-02-14T05:53:44.222Z,1.00
2019-02-14T05:54:50.876Z,1.00
2019-02-14T05:55:57.637Z,1.00
2019-02-14T05:57:04.946Z,0.90
2019-02-14T05:58:11.734Z,0.90
2019-02-14T05:59:18.787Z,0.90
2019-02-14T06:00:25.504Z,0.90
2019-02-14T06:01:32.669Z,0.90
2019-02-14T06:02:39.409Z,0.90
2019-02-14T06:03:46.120Z,0.90
2019-02-14T06:04:52.786Z,0.90
2019-02-14T06:05:59.467Z,0.90
2019-02-14T06:07:06.226Z,0.90
2019-02-14T06:08:12.879Z,0.90
2019-02-14T06:09:20.141Z,0.90
2019-02-14T06:10:26.801Z,1.00
2019-02-14T06:11:33.509Z,0.90
2019-02-14T06:12:40.263Z,1.00
2019-02-14T06:13:46.953Z,1.00
2019-02-14T06:14:54.015Z,0.90
2019-02-14T06:16:00.706Z,0.90
2019-02-14T06:17:07.371Z,1.00
2019-02-14T06:18:14.083Z,0.90
2019-02-14T06:19:21.379Z,1.00
2019-02-14T06:20:28.368Z,1.00
2019-02-14T06:21:35.166Z,1.00
2019-02-14T06:22:41.871Z,1.00
2019-02-14T06:23:48.733Z,1.00
2019-02-14T06:24:55.782Z,1.00
2019-02-14T06:26:02.967Z,1.00
2019-02-14T06:27:09.674Z,1.00
2019-02-14T06:28:16.418Z,1.00
2019-02-14T06:29:23.476Z,1.00
2019-02-14T06:30:31.300Z,1.00
2019-02-14T06:31:38.343Z,1.00
2019-02-14T06:32:45.012Z,1.00
2019-02-14T06:33:52.068Z,1.10
2019-02-14T06:34:58.828Z,1.10
2019-02-14T06:36:05.582Z,1.10
2019-02-14T06:37:12.260Z,1.10
2019-02-14T06:38:18.922Z,1.10
2019-02-14T06:39:25.994Z,1.10
2019-02-14T06:40:32.697Z,1.10
2019-02-14T06:41:39.446Z,1.10
2019-02-14T06:42:46.510Z,1.10
2019-02-14T06:43:53.213Z,1.20
2019-02-14T06:45:00.016Z,1.30
2019-02-14T06:46:06.735Z,1.30
2019-02-14T06:47:14.070Z,1.40
2019-02-14T06:48:20.797Z,1.40
2019-02-14T06:49:27.572Z,1.40
2019-02-14T06:50:35.061Z,1.50
2019-02-14T06:51:42.189Z,1.50
2019-02-14T06:52:49.174Z,1.50
2019-02-14T06:53:55.894Z,1.50
2019-02-14T06:55:02.610Z,1.50
2019-02-14T06:56:10.049Z,1.50
2019-02-14T06:57:17.163Z,1.60
2019-02-14T06:58:24.138Z,1.60
2019-02-14T06:59:31.211Z,1.60
2019-02-14T07:00:37.891Z,1.70
2019-02-14T07:01:44.619Z,1.70
2019-02-14T07:02:51.302Z,1.70
2019-02-14T07:03:58.363Z,1.70
2019-02-14T07:05:05.542Z,1.80
2019-02-14T07:06:12.265Z,1.80
2019-02-14T07:07:19.283Z,1.80
2019-02-14T07:08:25.964Z,1.80
2019-02-14T07:09:32.711Z,1.80
2019-02-14T07:10:39.486Z,1.80
2019-02-14T07:11:46.189Z,1.80
2019-02-14T07:12:52.870Z,1.80
2019-02-14T07:13:59.527Z,1.80
2019-02-14T07:15:07.728Z,1.80
2019-02-14T07:16:14.794Z,1.80
2019-02-14T07:17:21.608Z,1.80
2019-02-14T07:18:28.846Z,1.80
2019-02-14T07:19:35.554Z,1.80
2019-02-14T07:20:42.245Z,1.80
2019-02-14T07:21:49.071Z,1.80
2019-02-14T07:22:55.779Z,1.80
2019-02-14T07:24:02.580Z,1.80
2019-02-14T07:25:10.280Z,1.80
2019-02-14T07:26:17.525Z,1.80
2019-02-14T07:27:24.236Z,1.80
2019-02-14T07:28:30.980Z,1.80
2019-02-14T07:29:37.982Z,1.90
2019-02-14T07:30:44.961Z,1.90
2019-02-14T07:31:51.954Z,1.90
2019-02-14T07:32:58.693Z,1.90
2019-02-14T07:34:05.977Z,1.90
2019-02-14T07:35:13.086Z,1.90
2019-02-14T07:36:19.754Z,1.90
2019-02-14T07:37:27.105Z,2.00
2019-02-14T07:38:34.233Z,2.00
2019-02-14T07:39:40.958Z,2.00
2019-02-14T07:40:48.155Z,2.00
2019-02-14T07:41:55.150Z,2.00
2019-02-14T07:43:02.055Z,2.00
2019-02-14T07:44:08.762Z,2.00
2019-02-14T07:45:16.186Z,2.00
2019-02-14T07:46:23.540Z,2.00
2019-02-14T07:47:30.363Z,2.00
2019-02-14T07:48:37.109Z,2.10
2019-02-14T07:49:44.175Z,2.10
2019-02-14T07:50:50.877Z,2.10
2019-02-14T07:51:57.548Z,2.10
2019-02-14T07:53:04.274Z,2.20
2019-02-14T07:54:11.209Z,2.10
2019-02-14T07:55:17.950Z,2.20
2019-02-14T07:56:25.091Z,2.20
2019-02-14T07:57:31.872Z,2.20
2019-02-14T07:58:38.952Z,2.20
2019-02-14T07:59:45.691Z,2.20
2019-02-14T08:00:52.361Z,2.20
2019-02-14T08:01:59.157Z,2.20
2019-02-14T08:03:05.808Z,2.20
2019-02-14T08:04:12.798Z,2.20
2019-02-14T08:05:19.539Z,2.20
2019-02-14T08:06:26.287Z,2.30
2019-02-14T08:07:36.038Z,2.20
2019-02-14T08:08:42.749Z,2.20
2019-02-14T08:09:49.502Z,2.30
2019-02-14T08:10:56.723Z,2.30
2019-02-14T08:12:03.419Z,2.30
2019-02-14T08:13:10.795Z,2.40
2019-02-14T08:14:17.885Z,2.40
2019-02-14T08:15:24.907Z,2.40
2019-02-14T08:16:31.992Z,2.50
2019-02-14T08:17:39.410Z,2.50
2019-02-14T08:18:46.059Z,2.50
2019-02-14T08:19:52.813Z,2.50
2019-02-14T08:20:59.446Z,2.50
2019-02-14T08:22:06.175Z,2.60
2019-02-14T08:23:12.857Z,2.60
2019-02-14T08:24:19.844Z,2.60
2019-02-14T08:25:26.526Z,2.60
2019-02-14T08:26:33.552Z,2.70
2019-02-14T08:27:40.381Z,2.80
2019-02-14T08:28:47.414Z,2.80
2019-02-14T08:29:54.368Z,2.90
2019-02-14T08:31:01.204Z,2.90
2019-02-14T08:32:08.125Z,2.90
2019-02-14T08:33:14.876Z,2.90
2019-02-14T08:34:21.567Z,3.00
2019-02-14T08:35:28.325Z,3.00
2019-02-14T08:36:35.307Z,3.00
2019-02-14T08:37:45.629Z,3.00
2019-02-14T08:38:51.154Z,3.00
2019-02-14T08:39:57.822Z,3.00
2019-02-14T08:41:04.845Z,3.00
2019-02-14T08:42:11.916Z,3.00
2019-02-14T08:43:18.821Z,3.10
2019-02-14T08:44:25.540Z,3.10
2019-02-14T08:45:32.280Z,3.10
2019-02-14T08:46:38.942Z,3.20
2019-02-14T08:47:57.657Z,3.20
2019-02-14T08:49:04.397Z,3.20
2019-02-14T08:50:11.304Z,3.30
2019-02-14T08:51:18.094Z,3.40
2019-02-14T08:52:24.783Z,3.40
2019-02-14T08:53:31.470Z,3.50
2019-02-14T08:54:38.889Z,3.50
2019-02-14T08:55:45.942Z,3.60
2019-02-14T08:56:52.621Z,3.60
2019-02-14T08:57:59.360Z,3.70
2019-02-14T08:59:06.056Z,3.70
2019-02-14T09:00:14.629Z,3.80
2019-02-14T09:01:21.665Z,3.90
2019-02-14T09:02:28.513Z,4.00
2019-02-14T09:03:35.243Z,4.10
2019-02-14T09:04:41.978Z,4.20
2019-02-14T09:05:48.683Z,4.40
2019-02-14T09:06:55.724Z,4.50
2019-02-14T09:08:02.413Z,4.60
2019-02-14T09:09:09.453Z,4.60
2019-02-14T09:10:16.401Z,4.80
2019-02-14T09:11:23.311Z,4.90
2019-02-14T09:12:32.024Z,5.00
2019-02-14T09:13:38.727Z,5.10
2019-02-14T09:14:45.407Z,5.20
2019-02-14T09:15:52.504Z,5.20
2019-02-14T09:16:59.247Z,5.30
2019-02-14T09:18:07.827Z,5.30
2019-02-14T09:19:15.121Z,5.30
2019-02-14T09:20:22.004Z,5.30
2019-02-14T09:21:28.791Z,5.30
2019-02-14T09:22:35.578Z,5.30
2019-02-14T09:23:42.651Z,5.40
2019-02-14T09:24:49.369Z,5.40
2019-02-14T09:25:56.023Z,5.40
2019-02-14T09:27:02.807Z,5.50
2019-02-14T09:28:10.204Z,5.50
2019-02-14T09:29:16.968Z,5.60
2019-02-14T09:30:24.187Z,5.60
2019-02-14T09:31:30.930Z,5.60
2019-02-14T09:32:37.663Z,5.60
2019-02-14T09:33:44.457Z,5.50
2019-02-14T09:34:51.424Z,5.50
2019-02-14T09:35:58.188Z,5.60
2019-02-14T09:37:05.227Z,5.60
2019-02-14T09:38:12.006Z,5.60
2019-02-14T09:39:18.979Z,5.70
2019-02-14T09:40:25.610Z,5.80
2019-02-14T09:41:32.692Z,5.80
2019-02-14T09:42:39.417Z,5.90
2019-02-14T09:43:46.303Z,5.90
2019-02-14T09:44:52.975Z,5.90
2019-02-14T09:45:59.986Z,6.00
2019-02-14T09:47:07.098Z,6.00
2019-02-14T09:48:14.093Z,6.00
2019-02-14T09:49:20.874Z,6.10
2019-02-14T09:50:27.540Z,6.10
2019-02-14T09:51:34.437Z,6.20
2019-02-14T09:52:41.945Z,6.20
2019-02-14T09:53:48.608Z,6.30
2019-02-14T09:54:55.360Z,6.30
2019-02-14T09:56:02.038Z,6.30
2019-02-14T09:57:09.022Z,6.40
2019-02-14T09:58:16.306Z,6.50
2019-02-14T09:59:23.304Z,6.50
2019-02-14T10:00:30.073Z,6.60
2019-02-14T10:01:36.771Z,6.70
2019-02-14T10:02:43.433Z,6.80
2019-02-14T10:03:50.101Z,6.80
2019-02-14T10:04:57.502Z,6.90
2019-02-14T10:06:04.418Z,6.90
2019-02-14T10:07:11.758Z,7.00
2019-02-14T10:08:18.457Z,7.10
2019-02-14T10:09:25.172Z,7.20
2019-02-14T10:10:32.272Z,7.30
2019-02-14T10:11:39.045Z,7.30
2019-02-14T10:12:45.727Z,7.40
2019-02-14T10:13:52.411Z,7.50
2019-02-14T10:14:59.078Z,7.50
2019-02-14T10:16:05.802Z,7.50
2019-02-14T10:17:12.482Z,7.60
2019-02-14T10:18:19.935Z,7.60
2019-02-14T10:19:28.685Z,7.70
2019-02-14T10:20:35.714Z,7.70
2019-02-14T10:21:42.393Z,7.80
2019-02-14T10:22:49.073Z,7.90
2019-02-14T10:23:56.492Z,8.00
2019-02-14T10:25:03.176Z,8.00
2019-02-14T10:26:09.869Z,8.00
2019-02-14T10:27:16.570Z,8.10
2019-02-14T10:28:23.301Z,8.10
2019-02-14T10:29:30.157Z,8.20
2019-02-14T10:30:36.822Z,8.10
2019-02-14T10:31:43.477Z,8.10
2019-02-14T10:32:50.441Z,8.20
2019-02-14T10:33:57.472Z,8.20
2019-02-14T10:35:04.249Z,8.30
2019-02-14T10:36:11.217Z,8.30
2019-02-14T10:37:17.945Z,8.50
2019-02-14T10:38:25.577Z,8.50
2019-02-14T10:39:32.635Z,8.50
2019-02-14T10:40:39.489Z,8.50
2019-02-14T10:41:46.167Z,8.60
2019-02-14T10:42:52.862Z,8.50
2019-02-14T10:43:59.634Z,8.60
2019-02-14T10:45:09.508Z,8.50
2019-02-14T10:46:16.233Z,8.50
2019-02-14T10:47:22.936Z,8.60
2019-02-14T10:48:30.009Z,8.60
2019-02-14T10:49:36.704Z,8.60
2019-02-14T10:50:43.453Z,8.70
2019-02-14T10:51:50.504Z,8.70
2019-02-14T10:52:57.564Z,8.70
2019-02-14T10:54:04.249Z,8.80
2019-02-14T10:55:13.005Z,8.90
2019-02-14T10:56:19.664Z,9.00
2019-02-14T10:57:26.324Z,9.10
2019-02-14T10:58:33.067Z,9.10
2019-02-14T10:59:40.060Z,9.20
2019-02-14T11:00:46.749Z,9.30
2019-02-14T11:01:53.851Z,9.30
2019-02-14T11:03:00.918Z,9.40
2019-02-14T11:04:08.729Z,9.40
2019-02-14T11:05:16.916Z,9.40
2019-02-14T11:06:23.612Z,9.40
2019-02-14T11:07:30.300Z,9.50
2019-02-14T11:08:36.970Z,9.60
2019-02-14T11:09:44.348Z,9.60
2019-02-14T11:10:50.999Z,9.50
2019-02-14T11:11:58.066Z,9.50
2019-02-14T11:13:04.970Z,9.60
2019-02-14T11:14:11.660Z,9.60
2019-02-14T11:15:20.296Z,9.70
2019-02-14T11:16:26.929Z,9.70
2019-02-14T11:17:34.288Z,9.70
2019-02-14T11:18:44.390Z,9.80
2019-02-14T11:19:49.343Z,9.90
2019-02-14T11:20:55.993Z,9.90
2019-02-14T11:22:03.066Z,10.00
2019-02-14T11:23:09.998Z,10.10
2019-02-14T11:24:17.013Z,10.10
2019-02-14T11:25:30.416Z,10.10
2019-02-14T11:26:37.417Z,10.10
2019-02-14T11:27:44.827Z,10.20
2019-02-14T11:28:51.902Z,10.30
2019-02-14T11:29:58.589Z,10.30
2019-02-14T11:31:05.294Z,10.30
2019-02-14T11:32:12.014Z,10.40
2019-02-14T11:33:18.689Z,10.30
2019-02-14T11:34:25.394Z,10.30
2019-02-14T11:35:32.105Z,10.20
2019-02-14T11:36:39.175Z,10.20
2019-02-14T11:37:45.924Z,10.20
2019-02-14T11:38:52.658Z,10.30
2019-02-14T11:39:59.661Z,10.40
2019-02-14T11:41:06.372Z,10.40
2019-02-14T11:42:13.497Z,10.40
2019-02-14T11:43:20.171Z,10.50
2019-02-14T11:44:27.187Z,10.50
2019-02-14T11:45:34.097Z,10.50
2019-02-14T11:46:41.093Z,10.50
2019-02-14T11:47:47.803Z,10.50
2019-02-14T11:48:54.813Z,10.60
2019-02-14T11:50:01.825Z,10.60
2019-02-14T11:51:08.830Z,10.60
2019-02-14T11:52:15.553Z,10.70
2019-02-14T11:53:22.523Z,10.70
2019-02-14T11:54:29.276Z,10.70
2019-02-14T11:55:36.372Z,10.80
2019-02-14T11:56:43.098Z,10.80
2019-02-14T11:57:50.117Z,10.80
2019-02-14T11:58:57.188Z,10.90
2019-02-14T12:00:04.716Z,11.00
2019-02-14T12:01:11.385Z,11.00
2019-02-14T12:02:18.096Z,11.00
2019-02-14T12:03:24.739Z,11.00
2019-02-14T12:04:31.404Z,11.00
2019-02-14T12:05:38.248Z,11.00
2019-02-14T12:06:45.246Z,10.90
2019-02-14T12:07:52.372Z,11.00
2019-02-14T12:09:00.382Z,10.90
2019-02-14T12:10:13.597Z,10.90
2019-02-14T12:11:17.028Z,11.00
2019-02-14T12:12:25.795Z,11.00
2019-02-14T12:13:32.128Z,11.00
2019-02-14T12:14:39.143Z,11.00
2019-02-14T12:15:46.086Z,11.10
2019-02-14T12:16:53.471Z,11.10
2019-02-14T12:18:00.170Z,11.10
2019-02-14T12:19:06.868Z,11.20
2019-02-14T12:20:14.092Z,11.20
2019-02-14T12:21:20.815Z,11.20
2019-02-14T12:22:27.774Z,11.20
2019-02-14T12:23:34.818Z,11.20
2019-02-14T12:24:42.209Z,11.20
2019-02-14T12:25:49.301Z,11.20
2019-02-14T12:26:56.342Z,11.20
2019-02-14T12:28:03.549Z,11.30
2019-02-14T12:29:10.622Z,11.20
2019-02-14T12:30:17.965Z,11.20
2019-02-14T12:31:24.974Z,11.10
2019-02-14T12:32:31.956Z,11.20
2019-02-14T12:33:39.024Z,11.20
2019-02-14T12:34:45.685Z,11.30
2019-02-14T12:35:52.363Z,11.30
2019-02-14T12:36:59.763Z,11.40
2019-02-14T12:38:06.465Z,11.40
2019-02-14T12:39:13.124Z,11.50
2019-02-14T12:40:19.789Z,11.60
2019-02-14T12:41:26.875Z,11.50
2019-02-14T12:42:34.528Z,11.50
2019-02-14T12:43:41.259Z,11.50
2019-02-14T12:44:47.889Z,11.50
2019-02-14T12:45:54.582Z,11.40
2019-02-14T12:47:01.314Z,11.40
2019-02-14T12:48:07.981Z,11.40
2019-02-14T12:49:15.362Z,11.40
2019-02-14T12:50:22.048Z,11.40
2019-02-14T12:51:28.855Z,11.50
2019-02-14T12:52:36.187Z,11.50
2019-02-14T12:53:43.134Z,11.60
2019-02-14T12:54:49.815Z,11.60
2019-02-14T12:55:57.111Z,11.60
2019-02-14T12:57:03.925Z,11.70
2019-02-14T12:58:10.590Z,11.70
2019-02-14T12:59:17.598Z,11.70
2019-02-14T13:00:24.435Z,11.70
2019-02-14T13:01:31.662Z,11.80
2019-02-14T13:02:38.340Z,11.80
2019-02-14T13:03:45.256Z,11.70
2019-02-14T13:04:51.925Z,11.70
2019-02-14T13:05:59.126Z,11.80
2019-02-14T13:07:06.275Z,11.70
2019-02-14T13:08:12.945Z,11.70
2019-02-14T13:09:20.444Z,11.70
2019-02-14T13:10:27.261Z,11.70
2019-02-14T13:11:34.296Z,11.70
2019-02-14T13:12:41.332Z,11.70
2019-02-14T13:13:50.097Z,11.70
2019-02-14T13:14:56.748Z,11.70
2019-02-14T13:16:03.806Z,11.80
2019-02-14T13:17:10.479Z,11.80
2019-02-14T13:18:17.253Z,11.90
2019-02-14T13:19:23.939Z,11.80
2019-02-14T13:20:31.029Z,11.90
2019-02-14T13:21:37.772Z,11.80
2019-02-14T13:22:44.839Z,11.90
2019-02-14T13:23:51.987Z,12.00
2019-02-14T13:24:59.031Z,12.00
2019-02-14T13:26:06.118Z,12.00
2019-02-14T13:27:12.776Z,12.10
2019-02-14T13:28:19.430Z,12.10
2019-02-14T13:29:26.241Z,12.20
2019-02-14T13:30:32.999Z,12.20
2019-02-14T13:31:40.076Z,12.10
2019-02-14T13:32:46.831Z,12.10
2019-02-14T13:33:53.492Z,12.10
2019-02-14T13:35:00.338Z,12.10
2019-02-14T13:36:09.344Z,12.10
2019-02-14T13:37:16.668Z,12.00
2019-02-14T13:38:23.631Z,12.10
2019-02-14T13:39:32.614Z,12.00
2019-02-14T13:40:39.219Z,12.00
2019-02-14T13:41:45.873Z,12.00
2019-02-14T13:42:52.903Z,12.00
2019-02-14T13:43:59.904Z,12.00
2019-02-14T13:45:09.008Z,12.00
2019-02-14T13:46:15.946Z,12.00
2019-02-14T13:47:22.929Z,12.00
2019-02-14T13:48:31.139Z,12.10
2019-02-14T13:49:38.526Z,12.10
2019-02-14T13:50:45.653Z,12.20
2019-02-14T13:51:52.354Z,12.10
2019-02-14T13:52:59.673Z,12.10
2019-02-14T13:54:06.365Z,12.20
2019-02-14T13:55:12.685Z,12.10
2019-02-14T13:56:19.373Z,12.10
2019-02-14T13:57:26.353Z,12.10
2019-02-14T13:58:33.427Z,12.00
2019-02-14T13:59:40.831Z,12.00
2019-02-14T14:00:47.904Z,11.90
2019-02-14T14:01:54.947Z,11.90
2019-02-14T14:03:01.806Z,11.90
2019-02-14T14:04:08.447Z,11.80
2019-02-14T14:05:17.182Z,11.80
2019-02-14T14:06:25.536Z,11.80
2019-02-14T14:07:40.096Z,11.80
2019-02-14T14:08:41.061Z,11.80
2019-02-14T14:09:47.704Z,11.70
2019-02-14T14:10:55.150Z,11.70
2019-02-14T14:12:02.665Z,11.70
2019-02-14T14:13:09.712Z,11.60
2019-02-14T14:14:16.374Z,11.60
2019-02-14T14:15:23.432Z,11.60
2019-02-14T14:16:30.126Z,11.60
2019-02-14T14:17:36.822Z,11.60
2019-02-14T14:18:44.341Z,11.50
2019-02-14T14:19:51.321Z,11.50
2019-02-14T14:20:58.253Z,11.50
2019-02-14T14:22:05.248Z,11.50
2019-02-14T14:23:11.924Z,11.40
2019-02-14T14:24:19.302Z,11.40
2019-02-14T14:25:25.992Z,11.40
2019-02-14T14:26:32.824Z,11.30
2019-02-14T14:27:39.542Z,11.30
2019-02-14T14:28:46.186Z,11.30
2019-02-14T14:29:52.861Z,11.30
2019-02-14T14:30:59.592Z,11.30
2019-02-14T14:32:06.574Z,11.30
2019-02-14T14:33:13.585Z,11.20
2019-02-14T14:34:20.333Z,11.20
2019-02-14T14:35:27.369Z,11.20
2019-02-14T14:36:34.400Z,11.20
2019-02-14T14:37:41.095Z,11.20
2019-02-14T14:38:47.821Z,11.20
2019-02-14T14:39:54.473Z,11.20
2019-02-14T14:41:01.736Z,11.20
2019-02-14T14:42:11.290Z,11.20
2019-02-14T14:43:36.869Z,11.20
2019-02-14T14:44:48.564Z,11.20